Time;durP1;ratioP1;P1;durP2;ratioP2;P2;SDS_P1;SDS_P2;PMS_P1;PMS_P2;Temp;Humidity;BMP_temperature;BMP_pressure;BME280_temperature;BME280_humidity;BME280_pressure;Samples;Min_cycle;Max_cycle;Signal;HPM_P1;HPM_P2
2022/08/18 00:02:50;;;;;;;4.17;3.77;;;;;;;;;;12397831;28;20065;-83
2022/08/18 00:08:52;;;;;;;3.03;2.65;;;;;;;;;;12419250;28;20031;-82
2022/08/18 00:14:53;;;;;;;;;;;;;;;;;;12406390;28;20053;-83
2022/08/18 00:20:55;;;;;;;4.60;4.20;;;;;;;;;;12401268;28;19924;-82
2022/08/18 00:26:57;;;;;;;;;;;;;;;;;;12395174;28;20030;-81
2022/08/18 00:32:59;;;;;;;3.33;3.03;;;;;;;;;;12393944;28;19922;-82
2022/08/18 00:39:01;;;;;;;3.55;3.25;;;;;;;;;;12401265;28;20033;-81
2022/08/18 00:45:04;;;;;;;3.75;3.35;;;;;;;;;;12400495;28;20035;-83
2022/08/18 00:51:17;;;;;;;4.20;3.90;;;;;;;;;;12400915;28;20034;-83
2022/08/18 00:57:20;;;;;;;3.92;3.50;;;;;;;;;;12402167;28;20065;-83
2022/08/18 01:03:22;;;;;;;4.13;3.65;;;;;;;;;;12401894;28;20046;-82
2022/08/18 01:09:27;;;;;;;3.75;3.45;;;;;;;;;;12400208;28;20053;-83
2022/08/18 01:15:29;;;;;;;5.13;4.65;;;;;;;;;;12383298;28;20042;-82
2022/08/18 01:21:49;;;;;;;;;;;;;;;;;;12390869;28;20041;-82
2022/08/18 01:27:51;;;;;;;6.15;5.25;;;;;;;;;;12391134;28;19917;-81
2022/08/18 01:33:53;;;;;;;5.95;4.32;;;;;;;;;;12391906;28;20050;-82
2022/08/18 01:39:55;;;;;;;5.18;4.45;;;;;;;;;;12391401;28;20049;-82
2022/08/18 01:45:59;;;;;;;4.97;4.57;;;;;;;;;;12390511;28;20495;-82
2022/08/18 01:52:03;;;;;;;6.88;5.80;;;;;;;;;;12376582;28;20039;-82
2022/08/18 01:58:06;;;;;;;4.95;4.50;;;;;;;;;;12424517;28;20387;-82
2022/08/18 02:04:11;;;;;;;7.60;6.78;;;;;;;;;;12390341;28;20058;-82
2022/08/18 02:10:13;;;;;;;8.93;8.05;;;;;;;;;;12373873;28;20038;-82
2022/08/18 02:16:15;;;;;;;8.68;7.85;;;;;;;;;;12391142;28;20423;-81
2022/08/18 02:22:18;;;;;;;8.40;7.60;;;;;;;;;;12390193;28;20038;-82
2022/08/18 02:28:20;;;;;;;5.05;4.25;;;;;;;;;;12389734;28;20038;-83
2022/08/18 02:34:22;;;;;;;8.57;7.43;;;;;;;;;;12395802;28;20050;-83
2022/08/18 02:40:24;;;;;;;8.27;7.45;;;;;;;;;;12400443;28;20039;-83
2022/08/18 02:46:26;;;;;;;6.68;5.65;;;;;;;;;;12398025;28;20061;-82
2022/08/18 02:52:31;;;;;;;7.25;6.50;;;;;;;;;;12397624;28;20049;-82
2022/08/18 02:58:33;;;;;;;7.97;7.18;;;;;;;;;;12398161;28;20045;-83
2022/08/18 03:04:35;;;;;;;6.55;5.97;;;;;;;;;;12397388;28;20058;-82
2022/08/18 03:10:37;;;;;;;5.53;5.05;;;;;;;;;;12395360;28;20435;-81
2022/08/18 03:16:40;;;;;;;6.88;6.28;;;;;;;;;;12397037;28;20304;-82
2022/08/18 03:22:42;;;;;;;5.78;5.28;;;;;;;;;;12395796;28;20034;-82
2022/08/18 03:28:45;;;;;;;6.30;5.70;;;;;;;;;;12400041;28;20030;-82
2022/08/18 03:34:47;;;;;;;7.45;6.75;;;;;;;;;;12392768;28;20054;-82
2022/08/18 03:40:49;;;;;;;;;;;;;;;;;;12405171;28;20035;-81
2022/08/18 03:46:51;;;;;;;7.60;6.93;;;;;;;;;;12391901;28;19910;-82
2022/08/18 03:52:54;;;;;;;7.05;6.45;;;;;;;;;;12392454;28;20042;-82
2022/08/18 03:58:57;;;;;;;7.63;6.18;;;;;;;;;;12392474;28;20038;-82
2022/08/18 04:05:02;;;;;;;6.93;6.35;;;;;;;;;;12392614;28;20399;-83
2022/08/18 04:11:07;;;;;;;18.75;16.90;;;;;;;;;;12394912;28;20042;-81
2022/08/18 04:17:09;;;;;;;14.32;12.80;;;;;;;;;;12392167;28;20042;-82
2022/08/18 04:23:10;;;;;;;13.57;12.27;;;;;;;;;;12390888;28;20038;-81
2022/08/18 04:29:16;;;;;;;21.05;19.05;;;;;;;;;;12390673;28;20037;-81
2022/08/18 04:35:18;;;;;;;14.77;13.38;;;;;;;;;;12391763;28;20511;-81
2022/08/18 04:41:23;;;;;;;15.73;14.18;;;;;;;;;;12391761;28;20026;-80
2022/08/18 04:47:25;;;;;;;14.82;13.25;;;;;;;;;;12374735;28;20041;-80
2022/08/18 04:53:45;;;;;;;7.72;6.43;;;;;;;;;;12391776;28;20042;-80
2022/08/18 04:59:47;;;;;;;3.22;2.92;;;;;;;;;;12373861;28;20038;-81
2022/08/18 05:05:49;;;;;;;2.50;1.70;;;;;;;;;;12391794;28;20058;-81
2022/08/18 05:11:51;;;;;;;2.17;1.25;;;;;;;;;;12391688;28;20403;-81
2022/08/18 05:17:52;;;;;;;2.88;1.35;;;;;;;;;;12376111;28;20034;-81
2022/08/18 05:23:55;;;;;;;2.10;1.00;;;;;;;;;;12391368;28;20030;-83
2022/08/18 05:29:56;;;;;;;0.98;0.90;;;;;;;;;;12388868;28;20029;-82
2022/08/18 05:36:03;;;;;;;1.42;0.90;;;;;;;;;;12394589;28;20389;-81
2022/08/18 05:42:11;;;;;;;1.52;0.70;;;;;;;;;;12373099;28;20027;-81
2022/08/18 05:48:13;;;;;;;1.33;0.80;;;;;;;;;;12389414;28;20049;-81
2022/08/18 06:00:37;;;;;;;1.13;1.05;;;;;;;;;;12388348;28;20395;-80
2022/08/18 06:06:40;;;;;;;2.72;1.20;;;;;;;;;;12390048;28;20054;-82
2022/08/18 06:12:43;;;;;;;1.92;1.27;;;;;;;;;;12396381;28;20050;-82
2022/08/18 06:18:54;;;;;;;2.90;1.88;;;;;;;;;;12396417;28;20034;-82
2022/08/18 06:24:56;;;;;;;3.70;1.80;;;;;;;;;;12407641;28;20041;-81
2022/08/18 06:31:16;;;;;;;1.77;1.40;;;;;;;;;;12410925;28;20046;-81
2022/08/18 06:37:21;;;;;;;1.70;1.30;;;;;;;;;;12396384;28;20043;-81
2022/08/18 06:43:23;;;;;;;2.88;1.15;;;;;;;;;;12397265;28;20023;-82
2022/08/18 06:49:24;;;;;;;4.00;1.73;;;;;;;;;;12397428;28;20045;-82
2022/08/18 06:55:37;;;;;;;2.75;1.92;;;;;;;;;;12402220;28;20050;-82
2022/08/18 07:01:39;;;;;;;3.38;2.47;;;;;;;;;;12409240;28;20074;-83
2022/08/18 07:07:42;;;;;;;2.97;2.58;;;;;;;;;;12428593;28;20046;-84
2022/08/18 07:13:45;;;;;;;3.50;2.10;;;;;;;;;;12414572;28;20069;-83
2022/08/18 07:19:54;;;;;;;2.90;2.35;;;;;;;;;;12395566;28;20046;-83
2022/08/18 07:26:05;;;;;;;2.67;2.40;;;;;;;;;;12395805;28;20038;-82
2022/08/18 07:32:16;;;;;;;3.27;2.50;;;;;;;;;;12395799;28;20395;-82
2022/08/18 07:38:28;;;;;;;2.90;2.60;;;;;;;;;;12379208;28;20041;-82
2022/08/18 07:44:33;;;;;;;3.13;2.47;;;;;;;;;;12395100;28;20289;-82
2022/08/18 07:50:39;;;;;;;2.15;1.95;;;;;;;;;;12394590;28;20385;-81
2022/08/18 07:57:17;;;;;;;3.03;2.70;;;;;;;;;;12393887;28;20030;-83
2022/08/18 08:03:27;;;;;;;2.45;2.25;;;;;;;;;;12510255;28;20058;-82
2022/08/18 08:09:48;;;;;;;2.93;2.50;;;;;;;;;;12406157;28;20030;-82
2022/08/18 08:16:06;;;;;;;4.72;3.33;;;;;;;;;;12392543;28;20042;-82
2022/08/18 08:22:12;;;;;;;5.68;3.25;;;;;;;;;;12393231;28;20038;-83
2022/08/18 08:28:23;;;;;;;3.20;2.90;;;;;;;;;;12392979;28;20047;-82
2022/08/18 08:34:45;;;;;;;6.23;4.63;;;;;;;;;;12392491;28;20129;-82
2022/08/18 08:40:51;;;;;;;5.30;4.40;;;;;;;;;;12394984;28;20045;-83
2022/08/18 08:47:02;;;;;;;4.63;3.20;;;;;;;;;;12394140;28;20030;-82
2022/08/18 08:53:23;;;;;;;2.63;2.30;;;;;;;;;;12391685;28;20415;-83
2022/08/18 08:59:25;;;;;;;2.03;1.50;;;;;;;;;;12391762;28;20491;-82
2022/08/18 09:05:26;;;;;;;;;;;;;;;;;;12391975;28;20070;-82
2022/08/18 09:11:48;;;;;;;2.35;1.33;;;;;;;;;;12391750;28;19917;-81
2022/08/18 09:17:53;;;;;;;2.88;1.30;;;;;;;;;;12391074;28;20042;-82
2022/08/18 09:24:20;;;;;;;2.85;1.75;;;;;;;;;;12390448;28;20054;-82
2022/08/18 09:30:51;;;;;;;2.40;1.50;;;;;;;;;;12391211;28;20377;-82
2022/08/18 09:37:02;;;;;;;2.03;1.35;;;;;;;;;;12413743;28;20488;-82
2022/08/18 09:43:11;;;;;;;2.83;1.50;;;;;;;;;;12390020;28;20045;-82
2022/08/18 09:49:23;;;;;;;1.80;1.20;;;;;;;;;;12375151;28;20041;-81
2022/08/18 09:55:25;;;;;;;2.60;1.25;;;;;;;;;;12391982;28;20042;-82
2022/08/18 10:01:33;;;;;;;2.10;1.10;;;;;;;;;;12392055;28;20379;-82
2022/08/18 10:07:36;;;;;;;2.20;1.00;;;;;;;;;;12392639;28;20539;-82
2022/08/18 10:13:58;;;;;;;0.85;0.80;;;;;;;;;;12392788;28;20038;-83
2022/08/18 10:20:00;;;;;;;1.40;0.90;;;;;;;;;;12393233;28;20389;-82
2022/08/18 10:26:02;;;;;;;1.52;1.38;;;;;;;;;;12392989;28;20048;-82
2022/08/18 10:32:07;;;;;;;1.95;1.23;;;;;;;;;;12421938;28;20031;-82
2022/08/18 10:38:16;;;;;;;2.22;1.10;;;;;;;;;;12446799;28;20095;-82
2022/08/18 10:44:21;;;;;;;2.20;1.20;;;;;;;;;;12403441;28;20026;-82
2022/08/18 10:50:25;;;;;;;1.33;1.23;;;;;;;;;;12389261;28;20042;-82
2022/08/18 10:56:46;;;;;;;1.50;1.35;;;;;;;;;;12406427;28;20053;-82
2022/08/18 13:33:20;;;;;;;3.83;1.17;;;;;;;;;;12637145;27;20572;-74
2022/08/18 13:39:23;;;;;;;4.40;1.15;;;;;;;;;;12636286;28;20512;-74
2022/08/18 13:45:25;;;;;;;4.05;0.98;;;;;;;;;;12636272;28;20051;-75
2022/08/18 13:51:26;;;;;;;2.95;0.80;;;;;;;;;;12636017;28;20036;-74
2022/08/18 13:57:30;;;;;;;;;;;;;;;;;;12636247;28;20473;-75
2022/08/18 14:03:34;;;;;;;3.78;1.10;;;;;;;;;;12634223;28;19920;-75
2022/08/18 14:09:36;;;;;;;1.85;1.00;;;;;;;;;;12634750;28;20032;-74
2022/08/18 14:15:38;;;;;;;2.80;1.00;;;;;;;;;;12634115;28;20032;-75
2022/08/18 14:28:03;;;;;;;4.70;1.30;;;;;;;;;;12616123;28;20059;-74
2022/08/18 14:34:05;;;;;;;5.03;1.65;;;;;;;;;;12600966;28;20036;-74
2022/08/18 14:40:06;;;;;;;;;;;;;;;;;;12600400;28;20049;-75
2022/08/18 14:46:08;;;;;;;3.70;1.07;;;;;;;;;;12599929;28;19915;-74
2022/08/18 14:52:11;;;;;;;4.43;1.60;;;;;;;;;;12599879;28;20278;-74
2022/08/18 14:58:13;;;;;;;3.30;1.13;;;;;;;;;;12581404;28;20517;-75
2022/08/18 15:04:15;;;;;;;3.97;1.30;;;;;;;;;;12580892;28;20051;-74
2022/08/18 15:10:17;;;;;;;4.05;1.20;;;;;;;;;;12580694;28;20070;-75
2022/08/18 15:16:20;;;;;;;5.88;1.60;;;;;;;;;;12598583;28;20036;-74
2022/08/18 15:28:42;;;;;;;2.33;0.82;;;;;;;;;;12580124;28;20628;-75
2022/08/18 15:34:44;;;;;;;3.85;0.93;;;;;;;;;;12597420;28;20025;-75
2022/08/18 15:40:48;;;;;;;3.50;0.80;;;;;;;;;;12596257;28;20040;-75
2022/08/18 15:46:51;;;;;;;2.30;0.45;;;;;;;;;;12596873;28;20045;-75
2022/08/18 15:52:57;;;;;;;2.42;0.82;;;;;;;;;;12596709;28;20032;-75
2022/08/18 15:59:05;;;;;;;2.25;0.60;;;;;;;;;;12579009;28;20037;-74
2022/08/18 16:05:08;;;;;;;1.90;0.45;;;;;;;;;;12561706;28;20036;-75
2022/08/18 16:11:12;;;;;;;1.77;0.68;;;;;;;;;;12595796;28;20028;-75
2022/08/18 16:17:14;;;;;;;1.33;0.40;;;;;;;;;;12595062;28;20043;-75
2022/08/18 16:23:16;;;;;;;0.70;0.40;;;;;;;;;;12577543;28;20041;-74
2022/08/18 16:29:18;;;;;;;2.03;0.50;;;;;;;;;;12577046;28;20053;-75
2022/08/18 16:35:20;;;;;;;3.03;0.63;;;;;;;;;;12576800;28;20032;-75
2022/08/18 16:41:22;;;;;;;1.27;0.40;;;;;;;;;;12576463;28;20040;-74
2022/08/18 16:47:24;;;;;;;1.58;0.50;;;;;;;;;;12559839;28;20040;-74
2022/08/18 16:53:26;;;;;;;2.15;0.50;;;;;;;;;;12559205;28;20041;-76
2022/08/18 17:05:48;;;;;;;1.70;0.67;;;;;;;;;;12594300;28;20043;-75
2022/08/18 17:11:50;;;;;;;1.65;0.63;;;;;;;;;;12593302;28;20078;-75
2022/08/18 17:17:52;;;;;;;1.40;0.60;;;;;;;;;;12575399;28;20509;-75
2022/08/18 17:23:54;;;;;;;2.03;0.63;;;;;;;;;;12593048;28;20032;-74
2022/08/18 17:30:05;;;;;;;1.27;0.43;;;;;;;;;;12575523;28;20060;-75
2022/08/18 17:36:20;;;;;;;1.67;0.52;;;;;;;;;;12593789;28;20466;-74
2022/08/18 17:42:25;;;;;;;1.58;0.70;;;;;;;;;;12592497;28;20047;-75
2022/08/18 17:48:28;;;;;;;1.13;0.47;;;;;;;;;;12592527;28;20032;-74
2022/08/18 17:54:39;;;;;;;1.73;0.40;;;;;;;;;;12558091;28;20520;-73
2022/08/18 18:00:40;;;;;;;0.80;0.50;;;;;;;;;;12593328;28;20052;-75
2022/08/18 18:06:43;;;;;;;1.65;0.70;;;;;;;;;;12597118;28;20036;-74
2022/08/18 18:12:45;;;;;;;2.95;0.60;;;;;;;;;;12583627;28;20465;-74
2022/08/18 18:18:55;;;;;;;1.70;0.50;;;;;;;;;;12600812;28;20041;-74
2022/08/18 18:24:59;;;;;;;1.17;0.35;;;;;;;;;;12600654;28;20032;-75
2022/08/18 18:31:17;;;;;;;0.98;0.35;;;;;;;;;;12600863;28;20061;-74
2022/08/18 18:37:25;;;;;;;1.20;0.68;;;;;;;;;;12600129;28;20048;-73
2022/08/18 18:43:27;;;;;;;2.55;0.88;;;;;;;;;;12582186;28;20025;-74
2022/08/18 18:49:49;;;;;;;2.30;0.45;;;;;;;;;;12599587;28;20032;-74
2022/08/18 18:56:14;;;;;;;2.38;0.88;;;;;;;;;;12599501;28;20040;-75
2022/08/18 19:02:35;;;;;;;2.63;1.00;;;;;;;;;;12587432;28;20056;-75
2022/08/18 19:08:41;;;;;;;2.38;1.15;;;;;;;;;;12598733;28;20020;-75
2022/08/18 19:15:03;;;;;;;4.03;1.40;;;;;;;;;;12581533;28;20040;-75
2022/08/18 19:21:12;;;;;;;4.75;1.20;;;;;;;;;;12582280;28;20053;-75
2022/08/18 19:27:24;;;;;;;3.90;1.40;;;;;;;;;;12597795;28;20043;-74
2022/08/18 19:33:44;;;;;;;3.60;1.42;;;;;;;;;;12579951;28;20044;-75
2022/08/18 19:39:48;;;;;;;3.22;0.70;;;;;;;;;;12597656;28;20047;-75
2022/08/18 19:45:54;;;;;;;3.35;1.27;;;;;;;;;;12579622;28;20028;-74
2022/08/18 19:52:05;;;;;;;2.70;1.27;;;;;;;;;;12597029;28;20044;-74
2022/08/18 19:58:30;;;;;;;3.38;1.70;;;;;;;;;;12579079;28;20052;-75
2022/08/18 20:04:51;;;;;;;3.97;1.40;;;;;;;;;;12578704;28;20048;-75
2022/08/18 20:11:06;;;;;;;4.03;1.60;;;;;;;;;;12595795;28;20024;-75
2022/08/18 20:17:17;;;;;;;3.92;1.40;;;;;;;;;;12595698;28;20044;-75
2022/08/18 20:23:30;;;;;;;3.13;1.35;;;;;;;;;;12577555;28;20040;-74
2022/08/18 20:29:35;;;;;;;2.35;1.25;;;;;;;;;;12577073;28;20067;-75
2022/08/18 20:35:42;;;;;;;3.20;1.10;;;;;;;;;;12560785;28;20032;-74
2022/08/18 20:41:49;;;;;;;3.72;1.40;;;;;;;;;;12576841;28;20482;-74
2022/08/18 20:48:03;;;;;;;2.42;0.95;;;;;;;;;;12576792;28;20028;-75
2022/08/18 20:54:31;;;;;;;2.67;0.50;;;;;;;;;;12576429;28;20504;-75
2022/08/18 21:00:34;;;;;;;1.48;0.63;;;;;;;;;;12590749;28;20052;-75
2022/08/18 21:06:40;;;;;;;1.25;0.60;;;;;;;;;;12594099;28;20401;-74
2022/08/18 21:12:47;;;;;;;1.67;0.52;;;;;;;;;;12594293;28;20025;-75
2022/08/18 21:18:57;;;;;;;2.15;0.60;;;;;;;;;;12575850;28;20041;-75
2022/08/18 21:24:59;;;;;;;1.88;0.77;;;;;;;;;;12593506;28;20037;-74
2022/08/18 21:31:04;;;;;;;1.73;0.70;;;;;;;;;;12593174;28;20059;-74
2022/08/18 21:37:08;;;;;;;3.30;1.17;;;;;;;;;;12575620;28;20028;-74
2022/08/18 21:43:12;;;;;;;1.58;0.80;;;;;;;;;;12600476;28;20493;-74
2022/08/18 21:49:24;;;;;;;2.30;0.80;;;;;;;;;;12602829;28;20044;-74
2022/08/18 21:55:29;;;;;;;3.35;1.42;;;;;;;;;;12585081;28;20040;-74
2022/08/18 22:01:32;;;;;;;2.10;1.23;;;;;;;;;;12568350;28;20049;-73
2022/08/18 22:07:34;;;;;;;3.40;0.95;;;;;;;;;;12584370;28;20509;-74
2022/08/18 22:13:57;;;;;;;2.58;1.20;;;;;;;;;;12583918;28;20028;-74
2022/08/18 22:20:18;;;;;;;1.73;1.02;;;;;;;;;;12583687;28;20043;-74
2022/08/18 22:26:25;;;;;;;5.00;1.65;;;;;;;;;;12583356;28;20032;-74
2022/08/18 22:32:27;;;;;;;7.93;2.35;;;;;;;;;;12566887;28;20076;-74
2022/08/18 22:38:30;;;;;;;4.93;1.50;;;;;;;;;;12582724;28;20489;-74
2022/08/18 22:44:31;;;;;;;3.03;1.40;;;;;;;;;;12582846;28;20039;-75
2022/08/18 22:50:33;;;;;;;4.10;1.65;;;;;;;;;;12599615;28;20188;-74
2022/08/18 22:56:35;;;;;;;;;;;;;;;;;;12565979;28;20035;-74
2022/08/18 23:02:37;;;;;;;4.75;1.52;;;;;;;;;;12565857;28;19921;-74
2022/08/18 23:08:39;;;;;;;2.38;1.20;;;;;;;;;;12599440;28;20035;-74
2022/08/18 23:14:43;;;;;;;4.97;1.35;;;;;;;;;;12599207;28;20029;-74
2022/08/18 23:20:46;;;;;;;3.05;1.30;;;;;;;;;;12580649;28;20036;-74
2022/08/18 23:26:48;;;;;;;3.40;1.25;;;;;;;;;;12598257;28;20489;-75
2022/08/18 23:32:50;;;;;;;4.18;1.20;;;;;;;;;;12597774;28;20056;-75
2022/08/18 23:38:52;;;;;;;3.03;1.02;;;;;;;;;;12580123;28;20052;-75
2022/08/18 23:45:02;;;;;;;4.78;1.52;;;;;;;;;;12563066;28;20044;-75
2022/08/18 23:51:04;;;;;;;2.92;1.17;;;;;;;;;;12579474;28;20047;-75
2022/08/18 23:57:06;;;;;;;4.95;1.45;;;;;;;;;;12596827;28;20041;-74
